• Join FlightAware (Why Join?)
  • Login
  • US Flag 
05:24AM EDT


 

Airport Tracker/Info


-or-


 

Live Flight TrackerFlight Track Log ✈ QFA127 ✈ 21-Jun-2013 ✈ YSSY / SYD - VHHH / HKG

Flight Track Log - Related Links

Times and Time Zones

All times are in EDT time to prevent confusion due to time zone crossing. See the QFA127 flight status page for this flight to view local times or setup timezone preferences in your user account.

Time Position Orientation Groundspeed Altitude Reporting Facility
EDT Latitude Longitude Course Direction KTS MPH feet Rate Location/Type
08:03PM -33.9340 151.1690 174° South 3 3  Level FlightAware
08:11PM -33.9350 151.1710 90° East 6 7  Level FlightAware
08:12PM -33.9360 151.1710 180° South 8 9  Level FlightAware
08:12PM -33.9370 151.1720 140° Southeast 7 8  Level FlightAware
08:13PM -33.9390 151.1720 180° South 6 7  Level FlightAware
08:14PM -33.9410 151.1730 157° South 9 10  Level FlightAware
08:15PM -33.9420 151.1730 180° South 10 12  Level FlightAware
08:15PM -33.9440 151.1730 180° South 10 12  Level FlightAware
08:16PM -33.9450 151.1740 140° Southeast 8 9  Level FlightAware
08:16PM -33.9460 151.1740 180° South 7 8  Level FlightAware
08:16PM -33.9470 151.1740 180° South 8 9  Level FlightAware
08:17PM -33.9490 151.1750 157° South 15 17  Level FlightAware
08:17PM -33.9500 151.1750 180° South 15 17  Level FlightAware
08:18PM -33.9530 151.1760 165° South 10 12  Level FlightAware
08:19PM -33.9540 151.1760 180° South 7 8  Level FlightAware
08:19PM -33.9550 151.1760 180° South 5 6  Level FlightAware
08:21PM -33.7919 151.0247 322° Northwest  Level Estimated
08:21PM -33.9560 151.1760 322° Northwest 4 5  Level FlightAware
08:21PM -33.9570 151.1770 140° Southeast 5 6  Level FlightAware
08:24PM -33.7539 150.9887 322° Northwest  Level Estimated
08:25PM -33.6578 150.9000 322° Northwest  Level Estimated
08:26PM -33.5617 150.8116 323° Northwest  Level Estimated
08:26PM -33.9580 151.1770 323° Northwest 5 6  Level FlightAware
08:27PM -33.9590 151.1770 180° South 4 5  Level FlightAware
08:27PM -33.9600 151.1770 180° South 2 2  Level FlightAware
08:30PM -33.7489 150.9813 322° Northwest  Level Estimated
08:31PM -33.6528 150.8926 322° Northwest  Level Estimated
08:31PM -33.9600 151.1780 322° Northwest 3 3  Level FlightAware
08:31PM -33.9610 151.1780 180° South 5 6 60 Level FlightAware
08:31PM -33.9620 151.1780 180° South 6 7 60 Level FlightAware
08:32PM -33.9630 151.1780 180° South 1 1 60 Level FlightAware
08:34PM -33.9640 151.1780 180° South 5 6 60 Level FlightAware
08:36PM -33.9640 151.1810 90° East 8 9 60 Level FlightAware
08:38PM -33.9590 151.1790 342° North 82 94 180 Level FlightAware
08:38PM -33.9460 151.1760 349° North 146 168 480 Level FlightAware
08:39PM -33.9200 151.1690 347° North 165 190 500 960 Climbing FlightAware
08:39PM -33.9010 151.1640 346° North 166 191 1,000 1,320 Climbing FlightAware
08:39PM -33.8810 151.1580 346° North 175 201 1,600 1,200 Climbing FlightAware
08:40PM -33.8740 151.1530 329° Northwest 182 209 1,700 1,020 Climbing FlightAware
08:40PM -33.8493 151.1224 329° Northwest 196 226 2,400 720 Climbing Aus ATC (RADAR)
08:40PM -33.8430 151.1130 329° Northwest 231 266 2,300 1,140 Descending FlightAware
08:41PM -33.8220 151.0810 308° West 247 284 3,200 1,440 Climbing FlightAware
08:41PM -33.8110 151.0660 311° West 263 303 3,400 900 Climbing FlightAware
08:42PM -33.7840 151.0290 311° West 301 346 3,900 900 Climbing FlightAware
08:42PM -33.7750 151.0170 312° West 316 364 4,000 1,200 Climbing FlightAware
08:42PM -33.7450 150.9750 311° West 340 391 4,700 1,620 Climbing FlightAware
08:42PM -33.7340 150.9610 313° West 342 394 5,100 2,700 Climbing FlightAware
08:43PM -33.7010 150.9170 312° West 342 394 6,500 2,580 Climbing FlightAware
08:43PM -33.6760 150.8830 311° West 344 396 7,500 2,340 Climbing FlightAware
08:44PM -33.6600 150.8620 312° West 342 394 8,100 2,220 Climbing FlightAware
08:44PM -33.6270 150.8160 311° West 348 400 9,200 1,980 Climbing FlightAware
08:45PM -33.5860 150.7640 313° West 357 411 10,600 2,040 Climbing FlightAware
08:45PM -33.5450 150.7160 316° Northwest 357 411 12,000 2,520 Climbing FlightAware
08:46PM -33.4880 150.6500 316° Northwest 358 412 13,800 2,280 Climbing FlightAware
08:47PM -33.4290 150.5820 316° Northwest 368 423 15,200 1,980 Climbing FlightAware
08:48PM -33.3758 150.5205 316° Northwest 372 428 16,700 1,680 Climbing Aus ATC (RADAR)
08:48PM -33.3730 150.5170 316° Northwest 381 438 16,500 2,040 Descending FlightAware
08:48PM -33.3313 150.4692 316° Northwest 374 430 17,900 1,920 Climbing Aus ATC (RADAR)
08:48PM -33.3190 150.4550 316° Northwest 385 443 17,900 1,140 Level FlightAware
08:49PM -33.2740 150.4030 316° Northwest 386 444 18,800 1,380 Climbing FlightAware
08:50PM -33.2100 150.3300 316° Northwest 403 464 19,800 1,560 Climbing FlightAware
08:50PM -33.2068 150.3266 316° Northwest 392 451 20,100 1,440 Climbing Aus ATC (RADAR)
08:50PM -33.1590 150.2710 316° Northwest 406 467 20,800 1,020 Climbing FlightAware
08:51PM -33.1010 150.2050 316° Northwest 412 474 21,500 1,080 Climbing FlightAware
08:52PM -33.0470 150.1440 317° Northwest 423 487 22,300 1,680 Climbing FlightAware
08:53PM -32.9750 150.0610 316° Northwest 408 470 24,100 1,860 Climbing FlightAware
08:53PM -32.9120 150.0110 326° Northwest 416 479 25,100 1,500 Climbing FlightAware
08:54PM -32.8489 149.9692 326° Northwest 414 476 26,100 1,200 Climbing Aus ATC (RADAR)
08:54PM -32.8350 149.9590 326° Northwest 412 474 26,000 660 Descending FlightAware
08:55PM -32.7230 149.8820 330° Northwest 412 474 27,000 1,020 Climbing FlightAware
08:56PM -32.6238 149.8171 330° Northwest 421 484 28,100 600 Climbing Aus ATC (RADAR)
08:56PM -32.6270 149.8180 330° Northwest 429 494 27,600 -180 Descending FlightAware
08:57PM -32.5600 149.7720 330° Northwest 425 489 28,000 1,080 Climbing FlightAware
08:57PM -32.4880 149.7260 332° Northwest 29,100 1,320 Climbing FlightAware
08:58PM -32.4042 149.6701 332° Northwest 430 495 29,800 720 Climbing Aus ATC (RADAR)
08:58PM -32.3790 149.6530 332° Northwest 446 513 29,800 1,080 Level FlightAware
08:59PM -32.3052 149.6038 332° Northwest 435 501 30,800 1,320 Climbing Aus ATC (RADAR)
08:59PM -32.3060 149.6040 332° Northwest 444 511 30,700 1,680 Descending FlightAware
09:00PM -32.2181 149.5462 332° Northwest 419 482 32,300 1,380 Climbing Aus ATC (RADAR)
09:00PM -32.2140 149.5430 332° Northwest 429 494 32,100 1,080 Descending FlightAware
09:01PM -32.1317 149.4886 332° Northwest 420 483 33,200 1,260 Climbing Aus ATC (RADAR)
09:01PM -32.1340 149.4900 332° Northwest 429 494 33,000 2,040 Descending FlightAware
09:01PM -32.0723 149.4495 332° Northwest 410 472 34,400 1,680 Climbing Aus ATC (RADAR)
09:01PM -32.0560 149.4380 332° Northwest 412 474 34,300 180 Descending FlightAware
09:02PM -31.9890 149.3940 331° Northwest 427 491 34,600 420 Climbing FlightAware
09:03PM -31.9070 149.3390 330° Northwest 426 490 35,000 840 Climbing FlightAware
09:04PM -31.8260 149.2860 331° Northwest 412 474 36,000 660 Climbing FlightAware
09:04PM -31.7480 149.2350 331° Northwest 421 484 36,000 60 Level FlightAware
09:06PM -31.6300 149.1577 331° Northwest 416 479 36,200  Climbing Aus ATC (RADAR)
09:06PM -31.6880 149.1950 331° Northwest 423 487 36,000 -480 Descending FlightAware
09:06PM -31.5880 149.1300 331° Northwest 421 484 36,000  Level FlightAware
09:07PM -31.5210 149.0860 331° Northwest 412 474 36,000 120 Level FlightAware
09:07PM -31.4604 149.0470 331° Northwest 412 474 36,200  Climbing Aus ATC (RADAR)
09:07PM -31.4410 149.0340 331° Northwest 410 472 36,000  Descending FlightAware
09:08PM -31.3765 148.9925 331° Northwest 409 471 36,200  Climbing Aus ATC (RADAR)
09:08PM -31.3500 148.9750 331° Northwest 408 470 36,000  Descending FlightAware
09:09PM -31.2787 148.9286 331° Northwest 413 475 36,200  Climbing Aus ATC (RADAR)
09:09PM -31.2760 148.9260 331° Northwest 405 466 36,000 -300 Descending FlightAware
09:10PM -31.2180 148.8890 331° Northwest 404 465 36,000  Level FlightAware
09:10PM -31.1440 148.8410 331° Northwest 408 470 36,000 240 Level FlightAware
09:11PM -31.1265 148.8301 331° Northwest 403 464 36,200  Climbing Aus ATC (RADAR)
09:11PM -31.0750 148.7960 331° Northwest 409 471 36,000  Descending FlightAware
09:11PM -31.0687 148.7929 331° Northwest 403 464 36,200  Climbing Aus ATC (RADAR)
09:12PM -31.0200 148.7610 331° Northwest 404 465 36,000  Descending FlightAware
09:12PM -30.9520 148.7177 331° Northwest 407 468 36,200  Climbing Aus ATC (RADAR)
09:13PM -30.9350 148.7060 331° Northwest 405 466 36,000 -240 Descending FlightAware
09:13PM -30.8660 148.6610 331° Northwest 407 468 36,000  Level FlightAware
09:14PM -30.8000 148.6190 331° Northwest 407 468 36,000  Level FlightAware
09:15PM -30.7340 148.5770 331° Northwest 408 470 36,000 120 Level FlightAware
09:15PM -30.6699 148.5363 331° Northwest 416 479 36,200  Climbing Aus ATC (RADAR)
09:15PM -30.6580 148.5280 331° Northwest 410 472 36,000 -300 Descending FlightAware
09:16PM -30.5890 148.4840 331° Northwest 411 473 36,000 240 Level FlightAware
09:16PM -30.5826 148.4806 331° Northwest 411 473 36,200 180 Climbing Aus ATC (RADAR)
09:17PM -30.4898 148.4213 331° Northwest 410 472 36,200 -180 Level Aus ATC (RADAR)
09:17PM -30.4410 148.3900 331° Northwest 407 468 36,000 -180 Descending FlightAware
09:18PM -30.3490 148.3310 331° Northwest 406 467 36,000  Level FlightAware
09:19PM -30.2840 148.2890 331° Northwest 406 467 36,000  Level FlightAware
09:20PM -30.2350 148.2550 329° Northwest 406 467 36,000 120 Level FlightAware
09:20PM -30.1492 148.2038 329° Northwest 414 476 36,200  Climbing Aus ATC (RADAR)
09:20PM -30.1770 148.2170 329° Northwest 406 467 36,000  Descending FlightAware
09:21PM -30.0873 148.1655 329° Northwest 407 468 36,200  Climbing Aus ATC (RADAR)
09:21PM -30.1090 148.1710 329° Northwest 406 467 36,000 -240 Descending FlightAware
09:22PM -30.0620 148.1400 330° Northwest 406 467 36,000  Level FlightAware
09:22PM -30.0130 148.1080 331° Northwest 406 467 36,000  Level FlightAware
09:23PM -29.9430 148.0610 330° Northwest 406 467 36,000  Level FlightAware
09:24PM -29.8960 148.0290 329° Northwest 406 467 36,000  Level FlightAware
09:25PM -29.8290 147.9850 330° Northwest 406 467 36,000 120 Level FlightAware
09:25PM -29.6949 147.8426 330° Northwest 405 466 36,200  Climbing Aus ATC (RADAR)
09:26PM -29.7470 147.9300 330° Northwest 406 467 36,000 -240 Descending FlightAware
09:26PM -29.6970 147.8970 330° Northwest 406 467 36,000  Level FlightAware
09:27PM -29.6300 147.8530 330° Northwest 406 467 36,000  Level FlightAware
09:28PM -29.5820 147.8210 330° Northwest 406 467 36,000 180 Level FlightAware
09:28PM -29.4287 147.6182 330° Northwest 403 464 36,200  Climbing Aus ATC (RADAR)
09:28PM -29.5140 147.7760 330° Northwest 406 467 36,000  Descending FlightAware
09:29PM -29.3534 147.5541 330° Northwest 402 463 36,200 120 Climbing Aus ATC (RADAR)
09:30PM -29.2779 147.4895 323° Northwest 403 464 36,200  Level Aus ATC (RADAR)
09:30PM -29.2272 147.4429 321° Northwest 402 463 36,200  Level Aus ATC (RADAR)
09:31PM -29.1443 147.3720 323° Northwest 403 464 36,200  Level Aus ATC (RADAR)
09:32PM -29.0600 147.3024 324° Northwest 404 465 36,200 -60 Level Aus ATC (RADAR)
09:38PM -28.5695 146.8794 324° Northwest 36,000 -60 Descending Aus ATC (Calculated)
09:40PM -28.4064 146.7469 323° Northwest  Level Estimated
09:41PM -28.3022 146.6599 324° Northwest  Level FlightAware Approximate
09:42PM -28.1979 146.5731 324° Northwest  Level FlightAware Approximate
09:43PM -28.0936 146.4865 324° Northwest  Level FlightAware Approximate
09:43PM -28.1278 146.5121 324° Northwest 36,000  Level Aus ATC (Calculated)
09:43PM -28.1278 146.5121 324° Northwest 36,000  Level Aus ATC (Calculated)
09:44PM -27.9892 146.4000 324° Northwest  Level FlightAware Approximate
09:45PM -27.9659 146.3784 324° Northwest  Level FlightAware Approximate
09:46PM -27.8613 146.2923 324° Northwest  Level FlightAware Approximate
09:47PM -27.7567 146.2064 324° Northwest  Level FlightAware Approximate
09:48PM -27.6520 146.1206 324° Northwest  Level FlightAware Approximate
09:48PM -27.6408 146.1115 324° Northwest 36,000  Level Aus ATC (Calculated)
09:49PM -27.5473 146.0351 324° Northwest  Level FlightAware Approximate
09:50PM -27.4767 145.9776 324° Northwest  Level FlightAware Approximate
09:51PM -27.3719 145.8923 324° Northwest  Level FlightAware Approximate
09:52PM -27.2671 145.8071 324° Northwest  Level FlightAware Approximate
09:53PM -27.1612 145.7237 324° Northwest  Level Estimated
09:53PM -27.2138 145.7639 324° Northwest 36,000  Level Aus ATC (Calculated)
09:54PM -27.1527 145.7145 324° Northwest 36,000  Level Aus ATC (Calculated)
09:56PM -26.9796 145.5745 324° Northwest  Level FlightAware Approximate
09:57PM -26.8746 145.4899 324° Northwest  Level FlightAware Approximate
09:58PM -26.7695 145.4054 324° Northwest  Level FlightAware Approximate
09:59PM -26.6644 145.3211 324° Northwest  Level FlightAware Approximate
09:59PM -26.7078 145.3559 325° Northwest 36,000  Level Aus ATC (Calculated)
09:59PM -26.6890 145.3410 324° Northwest 385 443 36,000  Level FlightAware
10:00PM -26.6230 145.2870 324° Northwest 384 442 36,000  Level FlightAware
10:01PM -26.5610 145.2380 325° Northwest 386 444 36,000  Level FlightAware
10:01PM -26.4850 145.1776 145° Southeast 36,000  Level Aus ATC (Calculated)
10:01PM -26.5070 145.1950 325° Northwest 386 444 36,000  Level FlightAware
10:02PM -26.4400 145.1420 325° Northwest 383 441 36,000  Level FlightAware
10:03PM -26.3810 145.0950 324° Northwest 383 441 36,000  Level FlightAware
10:03PM -26.3190 145.0450 324° Northwest 383 441 36,000  Level FlightAware
10:04PM -26.2619 145.0000 318° Northwest 36,000  Level Aus ATC (Calculated)
10:04PM -26.2600 144.9980 324° Northwest 384 442 36,000  Level FlightAware
10:05PM -26.2010 144.9510 324° Northwest 384 442 36,000  Level FlightAware
10:05PM -26.1380 144.9020 325° Northwest 387 445 36,000  Level FlightAware
10:06PM -26.0750 144.8510 324° Northwest 385 443 36,000  Level FlightAware
10:07PM -26.0170 144.8060 325° Northwest 386 444 36,000  Level FlightAware
10:08PM -25.9642 144.7642 322° Northwest 36,000  Level Aus ATC (Calculated)
10:08PM -25.9560 144.7570 324° Northwest 385 443 36,000  Level FlightAware
10:08PM -25.8920 144.7070 324° Northwest 384 442 36,000  Level FlightAware
10:09PM -25.8300 144.6580 325° Northwest 382 440 36,000  Level FlightAware
10:10PM -25.7700 144.6110 325° Northwest 381 438 36,000  Level FlightAware
10:10PM -25.7120 144.5650 324° Northwest 382 440 36,000  Level FlightAware
10:11PM -25.6610 144.5250 325° Northwest 383 441 36,000  Level FlightAware
10:12PM -25.5910 144.4710 325° Northwest 382 440 36,000  Level FlightAware
10:12PM -25.5393 144.4304 326° Northwest 36,000  Level Aus ATC (Calculated)
10:12PM -25.5270 144.4210 325° Northwest 382 440 36,000  Level FlightAware
10:13PM -25.4700 144.3760 325° Northwest 382 440 36,000  Level FlightAware
10:14PM -25.4090 144.3280 325° Northwest 380 437 36,000  Level FlightAware
10:15PM -25.3450 144.2780 325° Northwest 378 435 36,000  Level FlightAware
10:16PM -25.2450 144.2000 325° Northwest 378 435 36,000  Level FlightAware
10:16PM -25.1900 144.1580 325° Northwest 378 435 36,000  Level FlightAware
10:17PM -25.1240 144.1070 325° Northwest 380 437 36,000  Level FlightAware
10:17PM -25.0604 144.0576 149° Southeast 36,000  Level Aus ATC (Calculated)
10:18PM -25.0640 144.0600 325° Northwest 380 437 36,000  Level FlightAware
10:18PM -25.0100 144.0180 325° Northwest 378 435 36,000  Level FlightAware
10:19PM -24.9430 143.9670 325° Northwest 380 437 36,000  Level FlightAware
10:20PM -24.8850 143.9220 325° Northwest 382 440 36,000  Level FlightAware
10:21PM -24.8250 143.8750 325° Northwest 382 440 36,000  Level FlightAware
10:21PM -24.7640 143.8290 326° Northwest 381 438 36,000  Level FlightAware
10:22PM -24.7050 143.7830 325° Northwest 383 441 36,000  Level FlightAware
10:22PM -24.6338 143.7286 144° Southeast 36,000  Level Aus ATC (Calculated)
10:23PM -24.6380 143.7320 325° Northwest 384 442 36,000  Level FlightAware
10:23PM -24.5770 143.6850 325° Northwest 386 444 36,000  Level FlightAware
10:24PM -24.5150 143.6370 325° Northwest 384 442 36,000  Level FlightAware
10:25PM -24.4600 143.5950 325° Northwest 387 445 36,000  Level FlightAware
10:26PM -24.3920 143.5430 325° Northwest 392 451 36,000  Level FlightAware
10:26PM -24.3290 143.4950 325° Northwest 391 450 36,000  Level FlightAware
10:27PM -24.2660 143.4470 325° Northwest 389 448 36,000  Level FlightAware
10:27PM -24.1899 143.3892 145° Southeast 36,000  Level Aus ATC (Calculated)
10:28PM -24.2050 143.4010 325° Northwest 392 451 36,000  Level FlightAware
10:28PM -24.1450 143.3550 325° Northwest 395 455 36,000  Level FlightAware
10:29PM -24.0820 143.3070 325° Northwest 393 452 36,000  Level FlightAware
10:30PM -24.0170 143.2580 325° Northwest 392 451 36,000  Level FlightAware
10:30PM -23.9540 143.2100 325° Northwest 392 451 36,000  Level FlightAware
10:31PM -23.8890 143.1610 325° Northwest 395 455 36,000  Level FlightAware
10:32PM -23.8280 143.1150 325° Northwest 395 455 36,000  Level FlightAware
10:32PM -23.7692 143.0703 311° West 36,000  Level Aus ATC (Calculated)
10:33PM -23.7690 143.0700 325° Northwest 395 455 36,000  Level FlightAware
10:33PM -23.7010 143.0190 325° Northwest 395 455 36,000  Level FlightAware
10:34PM -23.6360 142.9700 325° Northwest 393 452 36,000  Level FlightAware
10:35PM -23.5800 142.9270 325° Northwest 394 453 36,000  Level FlightAware
10:35PM -23.5100 142.8750 326° Northwest 395 455 36,000  Level FlightAware
10:36PM -23.4181 142.8060 146° Southeast 36,000  Level Aus ATC (Calculated)
10:36PM -23.4490 142.8290 325° Northwest 398 458 36,000  Level FlightAware
10:37PM -23.3810 142.7780 325° Northwest 399 459 36,000  Level FlightAware
10:37PM -23.3478 142.7533 325° Northwest 36,000  Level Aus ATC (Calculated)
10:37PM -23.3478 142.7533 325° Northwest 36,000  Level Aus ATC (Calculated)
10:37PM -23.3210 142.7330 325° Northwest 398 458 36,000  Level FlightAware
10:38PM -23.2600 142.6870 325° Northwest 398 458 36,000  Level FlightAware
10:39PM -23.1910 142.6360 326° Northwest 402 463 36,000  Level FlightAware
10:40PM -23.1240 142.5860 326° Northwest 403 464 36,000  Level FlightAware
10:40PM -23.0730 142.5480 326° Northwest 401 461 36,000  Level FlightAware
10:41PM -23.0000 142.4940 326° Northwest 400 460 36,000  Level FlightAware
10:42PM -22.9320 142.4430 325° Northwest 399 459 36,000  Level FlightAware
10:42PM -22.8553 142.3861 145° Southeast 36,000  Level Aus ATC (Calculated)
10:42PM -22.8710 142.3980 326° Northwest 399 459 36,000  Level FlightAware
10:43PM -22.8080 142.3510 326° Northwest 400 460 36,000  Level FlightAware
10:44PM -22.7400 142.3000 325° Northwest 402 463 36,000  Level FlightAware
10:44PM -22.7144 142.2817 325° Northwest 36,000  Level Aus ATC (Calculated)
10:44PM -22.6780 142.2540 326° Northwest 404 465 36,000  Level FlightAware
10:45PM -22.6440 142.2290 326° Northwest 404 465 36,000  Level FlightAware
10:46PM -22.5510 142.1610 326° Northwest 401 461 36,000  Level FlightAware
10:46PM -22.5030 142.1254 146° Southeast 36,000  Level Aus ATC (Calculated)
10:46PM -22.5080 142.1290 325° Northwest 399 459 36,000  Level FlightAware
10:47PM -22.4440 142.0820 325° Northwest 398 458 36,000  Level FlightAware
10:48PM -22.3830 142.0370 326° Northwest 397 457 36,000  Level FlightAware
10:48PM -22.3619 142.0215 325° Northwest 36,000  Level Aus ATC (Calculated)
10:48PM -22.3200 141.9900 326° Northwest 398 458 36,000  Level FlightAware
10:49PM -22.2500 141.9390 326° Northwest 399 459 36,000  Level FlightAware
10:50PM -22.1930 141.8970 326° Northwest 399 459 36,000  Level FlightAware
10:50PM -22.1240 141.8470 326° Northwest 400 460 36,000  Level FlightAware
10:51PM -22.0796 141.8143 322° Northwest 36,000  Level Aus ATC (Calculated)
10:51PM -22.0710 141.8070 325° Northwest 400 460 36,000  Level FlightAware
10:52PM -22.0250 141.7720 325° Northwest 400 460 36,000  Level FlightAware
10:52PM -22.0090 141.7626 323° Northwest 36,000  Level Aus ATC (Calculated)
10:53PM -21.9610 141.7240 325° Northwest 400 460 36,000  Level FlightAware
10:53PM -21.8640 141.6570 327° Northwest 403 464 36,000  Level FlightAware
10:54PM -21.7990 141.6100 326° Northwest 403 464 36,000  Level FlightAware
10:55PM -21.7350 141.5630 326° Northwest 403 464 36,000  Level FlightAware
10:55PM -21.6700 141.5150 326° Northwest 403 464 36,000  Level FlightAware
10:56PM -21.6060 141.4690 326° Northwest 403 464 36,000  Level FlightAware
10:57PM -21.4767 141.3752 146° Southeast 36,000  Level Aus ATC (Calculated)
10:57PM -21.5410 141.4220 326° Northwest 405 466 36,000  Level FlightAware
10:57PM -21.4830 141.3800 326° Northwest 407 468 36,000  Level FlightAware
10:58PM -21.4180 141.3330 326° Northwest 409 471 36,000  Level FlightAware
10:59PM -21.3410 141.2770 326° Northwest 409 471 36,000  Level FlightAware
11:00PM -21.2740 141.2280 326° Northwest 409 471 36,000  Level FlightAware
11:00PM -21.2060 141.1800 327° Northwest 411 473 36,000  Level FlightAware
11:01PM -21.1450 141.1360 326° Northwest 412 474 36,000  Level FlightAware
11:02PM -21.0750 141.0850 326° Northwest 413 475 36,000  Level FlightAware
11:02PM -21.0028 141.0332 144° Southeast 36,000  Level Aus ATC (Calculated)
11:02PM -21.0090 141.0380 326° Northwest 412 474 36,000  Level FlightAware
11:03PM -20.9420 140.9900 326° Northwest 411 473 36,000  Level FlightAware
11:04PM -20.8760 140.9420 326° Northwest 413 475 36,000  Level FlightAware
11:04PM -20.7062 140.8206 146° Southeast 36,000  Level Aus ATC (Calculated)
11:05PM -20.8060 140.8920 326° Northwest 415 478 36,000  Level FlightAware
11:06PM -20.6810 140.8020 326° Northwest 414 476 36,000  Level FlightAware
11:06PM -20.6270 140.7640 327° Northwest 414 476 36,000  Level FlightAware
11:07PM -20.4688 140.6510 146° Southeast 36,000  Level Aus ATC (Calculated)
11:07PM -20.5490 140.7080 327° Northwest 414 476 36,000  Level FlightAware
11:08PM -20.4720 140.6540 327° Northwest 414 476 36,000  Level FlightAware
11:09PM -20.4070 140.6070 326° Northwest 415 478 36,000  Level FlightAware
11:09PM -20.3410 140.5600 326° Northwest 415 478 36,000  Level FlightAware
11:10PM -20.2670 140.5080 327° Northwest 417 480 36,000  Level FlightAware
11:11PM -20.1790 140.4450 326° Northwest 421 484 36,000  Level FlightAware
11:12PM -20.1150 140.3990 326° Northwest 422 486 36,000  Level FlightAware
11:12PM -19.9946 140.3020 143° Southeast 36,000  Level Aus ATC (Calculated)
11:12PM -20.0470 140.3440 326° Northwest 419 482 36,000  Level FlightAware
11:13PM -19.9840 140.2930 323° Northwest 420 483 36,000  Level FlightAware
11:14PM -19.9240 140.2450 323° Northwest 419 482 36,000  Level FlightAware
11:15PM -19.8540 140.1880 323° Northwest 420 483 36,000  Level FlightAware
11:15PM -19.8080 140.1510 323° Northwest 422 486 36,000  Level FlightAware
11:16PM -19.6411 140.0157 143° Southeast 36,000  Level Aus ATC (Calculated)
11:16PM -19.7310 140.0880 322° Northwest 423 487 36,000  Level FlightAware
11:16PM -19.6680 140.0370 322° Northwest 424 488 36,000  Level FlightAware
11:17PM -19.5231 139.9205 143° Southeast 36,000  Level Aus ATC (Calculated)
11:17PM -19.6020 139.9840 322° Northwest 425 489 36,000  Level FlightAware
11:18PM -19.5370 139.9320 323° Northwest 426 490 36,000  Level FlightAware
11:19PM -19.4740 139.8810 323° Northwest 426 490 36,000  Level FlightAware
11:19PM -19.4050 139.8250 323° Northwest 426 490 36,000  Level FlightAware
11:20PM -19.3350 139.7690 323° Northwest 426 490 36,000  Level FlightAware
11:21PM -19.2720 139.7180 323° Northwest 426 490 36,000  Level FlightAware
11:21PM -19.2020 139.6620 323° Northwest 426 490 36,000  Level FlightAware
11:22PM -19.0508 139.5412 143° Southeast 36,000  Level Aus ATC (Calculated)
11:22PM -19.1460 139.6180 323° Northwest 426 490 36,000  Level FlightAware
11:23PM -18.9917 139.4940 143° Southeast 36,000  Level Aus ATC (Calculated)
11:23PM -19.0810 139.5650 323° Northwest 427 491 36,000  Level FlightAware
11:24PM -18.9960 139.4970 323° Northwest 428 493 36,000  Level FlightAware
11:24PM -18.9210 139.4380 323° Northwest 431 496 36,000  Level FlightAware
11:25PM -18.8360 139.3690 322° Northwest 434 499 36,000  Level FlightAware
11:26PM -18.7670 139.3150 323° Northwest 435 501 36,000  Level FlightAware
11:27PM -18.5777 139.1641 143° Southeast 36,000  Level Aus ATC (Calculated)
11:27PM -18.6960 139.2580 323° Northwest 436 502 36,000  Level FlightAware
11:27PM -18.6330 139.2080 323° Northwest 436 502 36,000  Level FlightAware
11:28PM -18.5580 139.1480 323° Northwest 435 501 36,000  Level FlightAware
11:29PM -18.4900 139.0950 324° Northwest 436 502 36,000  Level FlightAware
11:30PM -18.4220 139.0400 322° Northwest 437 503 36,000  Level FlightAware
11:30PM -18.3560 138.9890 324° Northwest 438 504 36,000  Level FlightAware
11:31PM -18.2820 138.9300 323° Northwest 438 504 36,000  Level FlightAware
11:32PM -18.0890 138.7773 143° Southeast 36,000  Level Aus ATC (Calculated)
11:32PM -18.1920 138.8580 323° Northwest 438 504 36,000  Level FlightAware
11:33PM -18.1240 138.8050 323° Northwest 440 506 36,000  Level FlightAware
11:33PM -18.0670 138.7600 323° Northwest 440 506 36,000  Level FlightAware
11:34PM -17.9110 138.6371 143° Southeast 36,000  Level Aus ATC (Calculated)
11:34PM -18.0000 138.7070 323° Northwest 440 506 36,000  Level FlightAware
11:35PM -17.9500 138.6670 323° Northwest 440 506 36,000 660 Level FlightAware
11:35PM -17.7774 138.5322 143° Southeast 36,000 1,140 Level Aus ATC (Calculated)
11:35PM -17.7774 138.5322 143° Southeast 36,000 1,440 Level Aus ATC (Calculated)
11:36PM -17.8480 138.5880 324° Northwest 442 509 37,100 780 Climbing FlightAware
11:36PM -17.7970 138.5470 324° Northwest 442 509 37,100  Level FlightAware
11:37PM -17.7300 138.4940 323° Northwest 442 509 37,100  Level FlightAware
11:38PM -17.6800 138.4550 323° Northwest 442 509 37,100  Level FlightAware
11:38PM -17.4210 138.2531 144° Southeast 36,000  Descending Aus ATC (Calculated)
11:38PM -17.6160 138.4040 323° Northwest 442 509 37,100 1,320 Climbing FlightAware
11:39PM -17.5500 138.3510 323° Northwest 442 509 37,100  Level FlightAware
11:40PM -17.5000 138.3120 323° Northwest 442 509 37,100  Level FlightAware
11:40PM -17.4440 138.2680 323° Northwest 442 509 37,100  Level FlightAware
11:41PM -17.3780 138.2150 323° Northwest 442 509 37,100  Level FlightAware
11:42PM -17.3280 138.1760 323° Northwest 442 509 37,100  Level FlightAware
11:43PM -17.2620 138.1250 324° Northwest 442 509 37,100  Level FlightAware
11:43PM -17.2120 138.0850 323° Northwest 442 509 37,100  Level FlightAware
11:43PM -16.8856 137.8365 144° Southeast 36,000  Descending Aus ATC (Calculated)
11:44PM -17.1460 138.0330 323° Northwest 442 509 37,100 840 Climbing FlightAware
11:45PM -17.0960 137.9930 323° Northwest 442 509 37,100  Level FlightAware
11:47PM -16.8932 137.8364 324° Northwest  Level FlightAware Approximate
11:48PM -16.7891 137.7562 324° Northwest  Level FlightAware Approximate
11:48PM -16.3493 137.4222 323° Northwest 36,000  Level Aus ATC (Calculated)
11:50PM -16.2210 137.3236 324° Northwest  Level FlightAware Approximate
11:50PM -16.1703 137.2847 324° Northwest 36,000  Level Aus ATC (Calculated)
11:51PM -16.0808 137.2160 324° Northwest 36,000 120 Level Aus ATC (Calculated)
11:52PM -15.9934 137.1489 324° Northwest  Level FlightAware Approximate
11:53PM -15.8969 137.0750 324° Northwest  Level FlightAware Approximate
11:53PM -15.8121 137.0102 324° Northwest 36,000  Level Aus ATC (Calculated)
11:53PM -15.8121 137.0102 324° Northwest 36,000 120 Level Aus ATC (Calculated)
11:54PM -15.6777 136.9075 324° Northwest 36,000 120 Level Aus ATC (Calculated)
11:55PM -15.6993 136.9240 324° Northwest  Level FlightAware Approximate
11:56PM -15.5561 136.8148 324° Northwest  Level FlightAware Approximate
11:57PM -15.4519 136.7354 324° Northwest  Level FlightAware Approximate
11:58PM -15.3476 136.6561 324° Northwest  Level FlightAware Approximate
11:59PM -15.4519 136.7354 144° Southeast  Level FlightAware Approximate
12:00AM -15.3476 136.6561 324° Northwest  Level FlightAware Approximate
12:00AM -15.0975 136.4663 323° Northwest 38,000  Level Aus ATC (Calculated)
12:01AM -15.4519 136.7354 144° Southeast  Level FlightAware Approximate
12:02AM -15.3476 136.6561 324° Northwest  Level FlightAware Approximate
12:03AM -15.2041 136.5472 324° Northwest  Level FlightAware Approximate
12:04AM -15.0998 136.4681 324° Northwest  Level FlightAware Approximate
12:05AM -14.9954 136.3890 324° Northwest  Level FlightAware Approximate
12:06AM -14.8910 136.3101 324° Northwest  Level FlightAware Approximate
12:06AM -14.7447 136.1964 324° Northwest 469 540 38,000  Level Aus ATC (RADAR)
12:09AM -14.4970 136.0102 324° Northwest 451 519 38,000  Level Aus ATC (RADAR)
12:09AM -14.4387 135.9643 323° Northwest 451 519 38,000  Level Aus ATC (RADAR)
12:10AM -14.3511 135.9001 325° Northwest 455 524 38,000  Level Aus ATC (RADAR)
12:14AM -13.9541 135.6017 324° Northwest 446 513 38,000  Level Aus ATC (RADAR)
12:15AM -13.8332 135.5121 324° Northwest 451 519 38,000  Level Aus ATC (RADAR)
12:17AM -13.6898 135.4052 324° Northwest 444 511 38,000  Level Aus ATC (RADAR)
12:18AM -13.5021 135.2653 324° Northwest 449 517 38,000  Level Aus ATC (RADAR)
12:21AM -13.2535 135.0827 324° Northwest 453 521 38,000  Level Aus ATC (RADAR)
12:22AM -13.1736 135.0243 325° Northwest 459 528 38,000  Level Aus ATC (RADAR)
12:23AM -13.0708 134.9504 325° Northwest 480 552 38,000  Level Aus ATC (RADAR)
12:23AM -12.9936 134.8927 324° Northwest 462 532 38,000  Level Aus ATC (RADAR)
12:24AM -12.9334 134.8477 324° Northwest 456 525 38,000  Level Aus ATC (RADAR)
12:25AM -12.8392 134.7778 324° Northwest 451 519 38,000  Level Aus ATC (RADAR)
12:25AM -12.7719 134.7257 323° Northwest 449 517 38,000  Level Aus ATC (RADAR)
12:26AM -12.6751 134.6565 325° Northwest 452 520 38,000  Level Aus ATC (RADAR)
12:27AM -12.6143 134.6119 324° Northwest 451 519 38,000  Level Aus ATC (RADAR)
12:28AM -12.5180 134.5420 325° Northwest 455 524 38,000  Level Aus ATC (RADAR)
12:29AM -12.4329 134.4789 324° Northwest 448 516 38,000  Level Aus ATC (RADAR)
12:30AM -12.3303 134.4027 324° Northwest 447 514 38,000  Level Aus ATC (RADAR)
12:30AM -12.2780 134.3630 324° Northwest 461 531 38,000  Level FlightAware
12:31AM -12.2080 134.3110 324° Northwest 459 528 38,000  Level FlightAware
12:32AM -12.1390 134.2624 324° Northwest 450 518 38,000  Level Aus ATC (RADAR)
12:32AM -12.1360 134.2590 324° Northwest 459 528 38,000  Level FlightAware
12:32AM -12.0519 134.1983 324° Northwest 452 520 38,000  Level Aus ATC (RADAR)
12:33AM -12.0540 134.1980 324° Northwest 458 527 38,000  Level FlightAware
12:33AM -11.9740 134.1400 324° Northwest 459 528 38,000  Level FlightAware
12:33AM -11.9671 134.1351 324° Northwest 443 510 38,000  Level Aus ATC (RADAR)
12:34AM -11.9071 134.0909 324° Northwest 447 514 38,000  Level Aus ATC (RADAR)
12:34AM -11.8750 134.0670 324° Northwest 461 531 38,000  Level FlightAware
12:35AM -11.8067 134.0208 324° Northwest 460 529 38,000  Level Aus ATC (RADAR)
12:35AM -11.8020 134.0140 324° Northwest 455 524 38,000  Level FlightAware
12:36AM -11.7240 133.9570 324° Northwest 456 525 38,000  Level FlightAware
12:36AM -11.6530 133.9050 324° Northwest 456 525 38,000  Level FlightAware
12:36AM -11.6468 133.9004 324° Northwest 444 511 38,000  Level Aus ATC (RADAR)
12:37AM -11.5750 133.8480 324° Northwest 455 524 38,000  Level FlightAware
12:38AM -11.4980 133.7920 325° Northwest 456 525 38,000  Level FlightAware
12:38AM -11.4540 133.7600 325° Northwest 457 526 38,000  Level FlightAware
12:39AM -11.3590 133.6900 324° Northwest 457 526 38,000  Level FlightAware
12:40AM -11.2780 133.6320 325° Northwest 456 525 38,000  Level FlightAware
12:40AM -11.2100 133.5820 324° Northwest 455 524 38,000  Level FlightAware
12:41AM -11.1479 133.5375 324° Northwest 456 525 38,000  Level Aus ATC (RADAR)
12:41AM -11.1460 133.5350 324° Northwest 456 525 38,000  Level FlightAware
12:42AM -11.0634 133.4751 324° Northwest 436 502 38,000  Level Aus ATC (RADAR)
12:42AM -11.0640 133.4760 324° Northwest 457 526 38,000  Level FlightAware
12:43AM -10.9950 133.4250 324° Northwest 459 528 38,000  Level FlightAware
12:43AM -10.9230 133.3730 325° Northwest 461 531 38,000  Level FlightAware
12:44AM -10.8390 133.3120 325° Northwest 463 533 38,000  Level FlightAware
12:45AM -10.7600 133.2550 325° Northwest 462 532 38,000  Level FlightAware
12:45AM -10.6900 133.2040 324° Northwest 463 533 38,000  Level FlightAware
12:46AM -10.6180 133.1520 325° Northwest 463 533 38,000  Level FlightAware
12:47AM -10.5510 133.1040 325° Northwest 463 533 38,000  Level FlightAware
12:47AM -10.4660 133.0420 324° Northwest 463 533 38,000  Level FlightAware
12:48AM -10.3970 132.9920 325° Northwest 462 532 38,000  Level FlightAware
12:49AM -10.3314 132.9452 325° Northwest 452 520 38,000  Level Aus ATC (RADAR)
12:49AM -10.3260 132.9410 325° Northwest 460 529 38,000  Level FlightAware
12:49AM -10.2695 132.9004 325° Northwest 451 519 38,000  Level Aus ATC (RADAR)
12:50AM -10.2450 132.8830 325° Northwest 460 529 38,000  Level FlightAware
12:50AM -10.1720 132.8297 325° Northwest 454 522 38,000  Level Aus ATC (RADAR)
12:50AM -10.1660 132.8250 325° Northwest 459 528 38,000  Level FlightAware
12:51AM -10.1110 132.7857 325° Northwest 452 520 38,000  Level Aus ATC (RADAR)
12:51AM -10.0960 132.7750 325° Northwest 459 528 38,000  Level FlightAware
12:52AM -10.0250 132.7230 324° Northwest 457 526 38,000  Level FlightAware
12:52AM -9.9590 132.6760 324° Northwest 455 524 38,000  Level FlightAware
12:52AM -9.9451 132.6665 324° Northwest 446 513 38,000  Level Aus ATC (RADAR)
12:53AM -9.8730 132.6120 324° Northwest 454 522 38,000  Level FlightAware
12:53AM -9.8493 132.5974 324° Northwest 445 512 38,000  Level Aus ATC (RADAR)
12:54AM -9.7883 132.5534 324° Northwest 446 513 38,000  Level Aus ATC (RADAR)
12:54AM -9.8040 132.5600 324° Northwest 454 522 38,000  Level FlightAware
12:55AM -9.6921 132.4841 324° Northwest 446 513 38,000  Level Aus ATC (RADAR)
12:55AM -9.6313 132.4412 325° Northwest 443 510 38,000  Level Aus ATC (RADAR)
12:56AM -9.5253 132.3645 324° Northwest 450 518 38,000  Level Aus ATC (RADAR)
12:57AM -9.4372 132.3018 325° Northwest 447 514 38,000  Level Aus ATC (RADAR)
12:58AM -9.4040 132.2770 325° Northwest 461 531 38,000  Level FlightAware
12:58AM -9.3490 132.2387 325° Northwest 448 516 38,000  Level Aus ATC (RADAR)
12:59AM -9.3050 132.2060 325° Northwest 462 532 38,000  Level FlightAware
12:59AM -9.2870 132.1940 325° Northwest 450 518 38,000  Level Aus ATC (RADAR)
12:59AM -9.2180 132.1430 324° Northwest 470 541 38,000  Level FlightAware
01:00AM -9.1550 132.0980 325° Northwest 470 541 38,000  Level FlightAware
01:01AM -9.0820 132.0440 324° Northwest 470 541 38,000  Level FlightAware
01:01AM -9.0280 132.0050 324° Northwest 470 541 38,000  Level FlightAware
01:01AM -8.9850 131.9787 324° Northwest 450 518 38,000  Level Aus ATC (RADAR)
01:02AM -8.9570 131.9520 324° Northwest 470 541 38,000  Level FlightAware
01:03AM -8.9030 131.9120 324° Northwest 470 541 38,000  Level FlightAware
01:04AM -8.8290 131.8580 324° Northwest 470 541 38,000  Level FlightAware
01:04AM -8.7760 131.8190 324° Northwest 470 541 38,000  Level FlightAware
01:05AM -8.7040 131.7660 324° Northwest 470 541 38,000  Level FlightAware
01:05AM -8.6650 131.7370 324° Northwest 470 541 38,000  Level FlightAware
01:06AM -8.5920 131.6840 324° Northwest 470 541 38,000  Level FlightAware
01:07AM -8.4083 131.5678 324° Northwest 449 517 38,000  Level Aus ATC (RADAR)
01:07AM -8.5360 131.6430 324° Northwest 470 541 38,000  Level FlightAware
01:08AM -8.4650 131.5900 324° Northwest 470 541 38,000  Level FlightAware
01:08AM -8.3093 131.4959 331° Northwest 456 525 38,000  Level Aus ATC (RADAR)
01:08AM -8.4110 131.5510 324° Northwest 470 541 38,000  Level FlightAware
01:09AM -8.3370 131.4970 324° Northwest 470 541 38,000  Level FlightAware
01:12AM -8.0656 131.3449 331° Northwest  Level Estimated
01:13AM -7.9526 131.2816 331° Northwest  Level Estimated
01:14AM -7.8395 131.2183 331° Northwest  Level Estimated
01:15AM -7.7264 131.1550 331° Northwest  Level Estimated
01:16AM -7.6133 131.0918 331° Northwest  Level Estimated
01:17AM -7.5002 131.0286 331° Northwest  Level Estimated
01:17AM -7.3161 130.9399 331° Northwest  Level Estimated
01:18AM -7.3870 130.9655 331° Northwest  Level Estimated
01:19AM -7.2739 130.9024 331° Northwest  Level Estimated
01:20AM -7.1607 130.8393 331° Northwest  Level Estimated
01:21AM -7.0476 130.7762 331° Northwest  Level Estimated
01:22AM -6.9344 130.7132 331° Northwest  Level Estimated
01:24AM -6.5241 130.4986 331° Northwest  Level Estimated
01:25AM -6.4109 130.4357 331° Northwest  Level Estimated
01:26AM -6.2978 130.3728 331° Northwest  Level Estimated
01:27AM -6.1846 130.3099 331° Northwest  Level Estimated
01:28AM -6.0714 130.2470 331° Northwest  Level Estimated
01:29AM -5.9582 130.1842 331° Northwest  Level Estimated
01:30AM -5.8450 130.1214 331° Northwest  Level Estimated
01:31AM -5.7317 130.0587 331° Northwest  Level Estimated
01:32AM -5.6185 129.9959 331° Northwest  Level Estimated
01:33AM -5.5053 129.9332 331° Northwest  Level Estimated
01:34AM -5.3920 129.8705 331° Northwest  Level Estimated
01:35AM -5.2788 129.8078 331° Northwest  Level Estimated
01:36AM -5.1655 129.7452 331° Northwest  Level Estimated
01:37AM -5.0523 129.6826 331° Northwest  Level Estimated
01:38AM -4.9390 129.6200 331° Northwest  Level Estimated
01:39AM -4.8257 129.5574 331° Northwest  Level Estimated
01:40AM -4.7125 129.4948 331° Northwest  Level Estimated
01:41AM -4.5992 129.4323 331° Northwest  Level Estimated
01:42AM -4.4859 129.3698 331° Northwest  Level Estimated
01:43AM -4.3726 129.3073 331° Northwest  Level Estimated
01:44AM -4.2593 129.2448 331° Northwest  Level Estimated
01:45AM -4.1460 129.1823 331° Northwest  Level Estimated
01:46AM -4.0327 129.1199 331° Northwest  Level Estimated
01:47AM -3.9194 129.0574 331° Northwest  Level Estimated
01:48AM -3.8061 128.9950 331° Northwest  Level Estimated
01:49AM -3.6927 128.9326 331° Northwest  Level Estimated
01:50AM -3.5794 128.8703 331° Northwest  Level Estimated
01:51AM -3.4661 128.8079 331° Northwest  Level Estimated
01:52AM -3.3527 128.7455 331° Northwest  Level Estimated
01:53AM -3.2394 128.6832 331° Northwest  Level Estimated
01:54AM -3.1260 128.6209 331° Northwest  Level Estimated
01:55AM -3.0127 128.5586 331° Northwest  Level Estimated
01:56AM -2.8993 128.4963 331° Northwest  Level Estimated
01:57AM -2.7860 128.4340 331° Northwest  Level Estimated
01:58AM -2.6726 128.3717 331° Northwest  Level Estimated
01:59AM -2.5593 128.3095 331° Northwest  Level Estimated
02:00AM -2.4459 128.2472 331° Northwest  Level Estimated
02:01AM -2.3326 128.1850 331° Northwest  Level Estimated
02:02AM -2.2192 128.1228 331° Northwest  Level Estimated
02:03AM -2.1058 128.0605 331° Northwest  Level Estimated
02:04AM -1.9924 127.9983 331° Northwest  Level Estimated
02:05AM -1.8791 127.9361 331° Northwest  Level Estimated
02:06AM -1.7657 127.8739 331° Northwest  Level Estimated
02:07AM -1.6523 127.8118 331° Northwest  Level Estimated
02:08AM -1.5389 127.7496 331° Northwest  Level Estimated
02:09AM -1.4255 127.6874 331° Northwest  Level Estimated
02:10AM -1.3122 127.6253 331° Northwest  Level Estimated
02:11AM -1.1988 127.5631 331° Northwest  Level Estimated
02:12AM -1.0854 127.5009 331° Northwest  Level Estimated
02:13AM -0.9720 127.4388 331° Northwest  Level Estimated
02:14AM -0.8586 127.3766 331° Northwest  Level Estimated
02:15AM -0.7452 127.3145 331° Northwest  Level Estimated
02:16AM -0.6318 127.2524 331° Northwest  Level Estimated
02:17AM -0.5184 127.1902 331° Northwest  Level Estimated
02:18AM -0.4050 127.1281 331° Northwest  Level Estimated
02:19AM -0.2916 127.0660 331° Northwest  Level Estimated
02:20AM -0.1782 127.0038 331° Northwest  Level Estimated
02:21AM -0.0648 126.9417 331° Northwest  Level Estimated
02:22AM 0.0486 126.8796 331° Northwest  Level Estimated
02:23AM 0.1620 126.8175 331° Northwest  Level Estimated
02:24AM 0.2754 126.7553 331° Northwest  Level Estimated
02:25AM 0.3887 126.6932 331° Northwest  Level Estimated
02:26AM 0.5021 126.6311 331° Northwest  Level Estimated
02:27AM 0.6155 126.5689 331° Northwest  Level Estimated
02:28AM 0.7289 126.5068 331° Northwest  Level Estimated
02:29AM 0.8423 126.4446 331° Northwest  Level Estimated
02:30AM 0.9557 126.3825 331° Northwest  Level Estimated
02:31AM 1.0691 126.3204 331° Northwest  Level Estimated
02:32AM 1.1825 126.2582 331° Northwest  Level Estimated
02:33AM 1.2959 126.1961 331° Northwest  Level Estimated
02:34AM 1.4093 126.1339 331° Northwest  Level Estimated
02:35AM 1.5226 126.0717 331° Northwest  Level Estimated
02:36AM 1.6360 126.0095 331° Northwest  Level Estimated
02:37AM 1.7494 125.9474 331° Northwest  Level Estimated
02:38AM 1.8628 125.8852 331° Northwest  Level Estimated
02:39AM 1.9762 125.8230 331° Northwest  Level Estimated
02:40AM 2.0895 125.7608 331° Northwest  Level Estimated
02:41AM 2.2029 125.6985 331° Northwest  Level Estimated
02:42AM 2.3163 125.6363 331° Northwest  Level Estimated
02:43AM 2.4296 125.5741 331° Northwest  Level Estimated
02:44AM 2.5430 125.5118 331° Northwest  Level Estimated
02:45AM 2.6564 125.4496 331° Northwest  Level Estimated
02:46AM 2.7697 125.3873 331° Northwest  Level Estimated
02:47AM 2.8831 125.3250 331° Northwest  Level Estimated
02:48AM 2.9964 125.2627 331° Northwest  Level Estimated
02:49AM 3.1098 125.2004 331° Northwest  Level Estimated
02:50AM 3.2231 125.1381 331° Northwest  Level Estimated
02:51AM 3.3365 125.0758 331° Northwest  Level Estimated
02:52AM 3.4498 125.0134 331° Northwest  Level Estimated
02:53AM 3.5631 124.9510 331° Northwest  Level Estimated
02:54AM 3.6765 124.8887 331° Northwest  Level Estimated
02:55AM 3.7898 124.8263 331° Northwest  Level Estimated
02:56AM 3.9031 124.7639 331° Northwest  Level Estimated
02:57AM 4.0164 124.7014 331° Northwest  Level Estimated
02:58AM 4.1297 124.6390 331° Northwest  Level Estimated
02:59AM 4.2430 124.5765 331° Northwest  Level Estimated
03:00AM 4.3563 124.5141 331° Northwest  Level Estimated
03:01AM 4.4696 124.4516 331° Northwest  Level Estimated
03:02AM 4.5829 124.3890 331° Northwest  Level Estimated
03:03AM 4.6962 124.3265 331° Northwest  Level Estimated
03:04AM 4.8095 124.2639 331° Northwest  Level Estimated
03:05AM 4.9227 124.2014 331° Northwest  Level Estimated
03:06AM 5.0360 124.1388 331° Northwest  Level Estimated
03:07AM 5.1493 124.0761 331° Northwest  Level Estimated
03:08AM 5.2625 124.0135 331° Northwest  Level Estimated
03:09AM 5.3758 123.9508 331° Northwest  Level Estimated
03:10AM 5.4890 123.8881 331° Northwest  Level Estimated
03:11AM 5.6022 123.8254 331° Northwest  Level Estimated
03:12AM 5.7155 123.7627 331° Northwest  Level Estimated
03:13AM 5.8287 123.6999 331° Northwest  Level Estimated
03:14AM 5.9419 123.6371 331° Northwest  Level Estimated
03:15AM 6.0551 123.5743 331° Northwest  Level Estimated
03:16AM 6.1683 123.5115 331° Northwest  Level Estimated
03:17AM 6.2815 123.4486 331° Northwest  Level Estimated
03:18AM 6.3947 123.3857 331° Northwest  Level Estimated
03:19AM 6.5079 123.3228 331° Northwest  Level Estimated
03:20AM 6.6210 123.2598 331° Northwest  Level Estimated
03:21AM 6.7342 123.1969 331° Northwest  Level Estimated
03:22AM 6.8473 123.1339 331° Northwest  Level Estimated
03:23AM 6.9605 123.0708 331° Northwest  Level Estimated
03:24AM 7.0736 123.0078 331° Northwest  Level Estimated
03:25AM 7.1868 122.9446 331° Northwest  Level Estimated
03:26AM 7.2999 122.8815 331° Northwest  Level Estimated
03:27AM 7.4130 122.8184 331° Northwest  Level Estimated
03:28AM 7.5261 122.7552 331° Northwest  Level Estimated
03:29AM 7.6392 122.6919 331° Northwest  Level Estimated
03:30AM 7.7523 122.6287 331° Northwest  Level Estimated
03:31AM 7.8653 122.5654 331° Northwest  Level Estimated
03:32AM 7.9784 122.5020 331° Northwest  Level Estimated
03:33AM 8.0915 122.4387 331° Northwest  Level Estimated
03:34AM 8.2045 122.3753 331° Northwest  Level Estimated
03:35AM 8.3175 122.3118 331° Northwest  Level Estimated
03:36AM 8.4306 122.2484 331° Northwest  Level Estimated
03:37AM 8.5436 122.1848 331° Northwest  Level Estimated
03:38AM 8.6566 122.1213 331° Northwest  Level Estimated
03:39AM 8.7696 122.0577 331° Northwest  Level Estimated
03:40AM 8.8826 121.9941 331° Northwest  Level Estimated
03:41AM 8.9956 121.9304 331° Northwest  Level Estimated
03:42AM 9.1085 121.8667 331° Northwest  Level Estimated
03:43AM 9.2215 121.8029 331° Northwest  Level Estimated
03:44AM 9.3344 121.7392 331° Northwest  Level Estimated
03:45AM 9.4473 121.6753 331° Northwest  Level Estimated
03:46AM 9.5603 121.6115 331° Northwest  Level Estimated
03:47AM 9.6732 121.5475 331° Northwest  Level Estimated
03:48AM 9.7861 121.4836 331° Northwest  Level Estimated
03:49AM 9.8989 121.4196 331° Northwest  Level Estimated
03:50AM 10.0118 121.3555 331° Northwest  Level Estimated
03:51AM 10.1247 121.2915 331° Northwest  Level Estimated
03:52AM 10.2375 121.2273 331° Northwest  Level Estimated
03:53AM 10.3504 121.1631 331° Northwest  Level Estimated
03:54AM 10.4632 121.0989 331° Northwest  Level Estimated
03:55AM 10.5760 121.0347 331° Northwest  Level Estimated
03:56AM 10.6888 120.9703 331° Northwest  Level Estimated
03:57AM 10.8015 120.9060 331° Northwest  Level Estimated
03:58AM 10.9143 120.8416 331° Northwest  Level Estimated
03:59AM 11.0271 120.7771 331° Northwest  Level Estimated
04:00AM 11.1398 120.7126 331° Northwest  Level Estimated
04:01AM 11.2525 120.6480 331° Northwest  Level Estimated
04:02AM 11.3652 120.5834 331° Northwest  Level Estimated
04:03AM 11.4780 120.5188 331° Northwest  Level Estimated
04:04AM 11.5906 120.4540 331° Northwest  Level Estimated
04:05AM 11.7033 120.3893 331° Northwest  Level Estimated
04:06AM 11.8160 120.3244 331° Northwest  Level Estimated
04:07AM 11.9286 120.2596 331° Northwest  Level Estimated
04:08AM 12.0412 120.1946 331° Northwest  Level Estimated
04:09AM 12.1538 120.1297 331° Northwest  Level Estimated
04:10AM 12.2664 120.0646 331° Northwest  Level Estimated
04:10AM 11.7200 119.6650 331° Northwest 467 537 38,000  Level FlightAware
04:11AM 12.3790 119.9995 331° Northwest  Level Estimated
04:11AM 11.8040 119.6210 333° Northwest 467 537 38,000  Level FlightAware
04:11AM 11.8820 119.5810 333° Northwest 467 537 38,000  Level FlightAware
04:12AM 11.9810 119.5290 333° Northwest 467 537 38,000  Level FlightAware
04:13AM 12.0390 119.4990 333° Northwest 467 537 38,000  Level FlightAware
04:14AM 12.1200 119.4570 333° Northwest 467 537 38,000  Level FlightAware
04:14AM 12.1790 119.4260 333° Northwest 467 537 38,000  Level FlightAware
04:15AM 12.2390 119.3950 333° Northwest 467 537 38,000  Level FlightAware
04:16AM 12.3180 119.3540 333° Northwest 467 537 38,000  Level FlightAware
04:17AM 12.4060 119.3080 333° Northwest 467 537 38,000  Level FlightAware
04:18AM 12.4860 119.2660 333° Northwest 467 537 38,000  Level FlightAware
04:18AM 12.5430 119.2360 333° Northwest 467 537 38,000  Level FlightAware
04:19AM 12.6240 119.1940 333° Northwest 467 537 38,000  Level FlightAware
04:20AM 12.6840 119.1620 333° Northwest 467 537 38,000  Level FlightAware
04:21AM 12.9950 119.0150 335° Northwest 474 545 38,000  Level FlightAware
04:21AM 13.0740 118.9750 334° Northwest 475 547 38,000  Level FlightAware
04:22AM 13.1630 118.9290 333° Northwest 475 547 38,000  Level FlightAware
04:23AM 13.2430 118.8880 333° Northwest 474 545 38,000  Level FlightAware
04:23AM 13.3260 118.8450 333° Northwest 475 547 38,000  Level FlightAware
04:24AM 13.4080 118.8030 334° Northwest 478 550 38,000  Level FlightAware
04:25AM 13.4920 118.7600 334° Northwest 478 550 38,000  Level FlightAware
04:25AM 13.5760 118.7160 333° Northwest 478 550 38,000  Level FlightAware
04:26AM 13.6580 118.6740 334° Northwest 477 549 38,000  Level FlightAware
04:27AM 13.7470 118.6280 333° Northwest 481 554 38,000  Level FlightAware
04:28AM 13.8270 118.5870 334° Northwest 483 556 38,000  Level FlightAware
04:28AM 13.9110 118.5440 334° Northwest 485 558 38,000  Level FlightAware
04:29AM 13.9950 118.5000 333° Northwest 485 558 38,000  Level FlightAware
04:30AM 14.0840 118.4540 333° Northwest 484 557 38,000  Level FlightAware
04:30AM 14.1680 118.4110 334° Northwest 486 559 38,000  Level FlightAware
04:31AM 14.2500 118.3680 333° Northwest 485 558 38,000  Level FlightAware
04:32AM 14.3330 118.3250 333° Northwest 481 554 38,000  Level FlightAware
04:32AM 14.4140 118.2830 333° Northwest 478 550 38,000  Level FlightAware
04:33AM 14.4940 118.2410 333° Northwest 477 549 38,000  Level FlightAware
04:34AM 14.5700 118.2010 333° Northwest 478 550 38,000  Level FlightAware
04:35AM 14.6620 118.1540 334° Northwest 478 550 38,000  Level FlightAware
04:35AM 14.7510 118.1070 333° Northwest 477 549 38,000  Level FlightAware
04:36AM 14.8320 118.0640 333° Northwest 475 547 38,000  Level FlightAware
04:37AM 14.9070 118.0100 325° Northwest 476 548 38,000  Level FlightAware
04:37AM 14.9760 117.9560 323° Northwest 476 548 38,000  Level FlightAware
04:38AM 15.0540 117.9010 326° Northwest 476 548 38,000  Level FlightAware
04:39AM 15.1210 117.8560 327° Northwest 476 548 38,000  Level FlightAware
04:40AM 15.2000 117.8030 327° Northwest 476 548 38,000  Level FlightAware
04:41AM 15.3030 117.7340 327° Northwest 476 548 38,000  Level FlightAware
04:41AM 15.3660 117.6910 327° Northwest 476 548 38,000  Level FlightAware
04:42AM 15.4410 117.6410 327° Northwest 476 548 38,000  Level FlightAware
04:43AM 15.4980 117.6030 327° Northwest 476 548 38,000  Level FlightAware
04:44AM 15.5730 117.5520 327° Northwest 476 548 38,000  Level FlightAware
04:44AM 15.6310 117.5130 327° Northwest 476 548 38,000  Level FlightAware
04:45AM 15.6880 117.4740 327° Northwest 476 548 38,000  Level FlightAware
04:45AM 15.7580 117.4270 327° Northwest 476 548 38,000  Level FlightAware
04:46AM 15.8350 117.3750 327° Northwest 476 548 38,000  Level FlightAware
04:47AM 15.8920 117.3370 327° Northwest 476 548 38,000  Level FlightAware
04:48AM 15.9530 117.2950 326° Northwest 476 548 38,000 -540 Level FlightAware
04:50AM 16.1812 117.1783 334° Northwest  Level Estimated
04:51AM 16.2973 117.1189 334° Northwest  Level Estimated
04:52AM 16.4133 117.0594 334° Northwest  Level Estimated
04:53AM 16.5293 116.9999 334° Northwest  Level Estimated
04:54AM 16.6453 116.9402 334° Northwest  Level Estimated
04:55AM 16.7612 116.8805 334° Northwest  Level Estimated
04:56AM 16.8772 116.8207 334° Northwest  Level Estimated
04:57AM 16.9931 116.7609 334° Northwest  Level Estimated
04:58AM 17.1090 116.7010 334° Northwest  Level Estimated
04:59AM 17.2249 116.6410 334° Northwest  Level Estimated
05:00AM 17.3408 116.5809 334° Northwest  Level Estimated
05:01AM 17.4567 116.5207 334° Northwest  Level Estimated
05:02AM 17.5725 116.4605 334° Northwest  Level Estimated
05:03AM 17.6883 116.4002 334° Northwest  Level Estimated
05:04AM 17.8041 116.3398 334° Northwest  Level Estimated
05:05AM 17.9199 116.2793 334° Northwest  Level Estimated
05:06AM 18.0357 116.2188 334° Northwest  Level Estimated
05:07AM 18.1515 116.1582 334° Northwest  Level Estimated
05:08AM 18.2672 116.0975 334° Northwest  Level Estimated
05:09AM 18.3829 116.0367 334° Northwest  Level Estimated
05:10AM 18.4986 115.9758 333° Northwest  Level Estimated
05:11AM 18.6143 115.9149 333° Northwest  Level Estimated
05:12AM 18.7299 115.8539 333° Northwest  Level Estimated
05:13AM 18.8455 115.7927 333° Northwest  Level Estimated
05:14AM 18.9611 115.7315 333° Northwest  Level Estimated
05:15AM 19.0767 115.6703 333° Northwest  Level Estimated
05:16AM 19.1923 115.6089 333° Northwest  Level Estimated
05:17AM 19.3079 115.5474 333° Northwest  Level Estimated
05:18AM 19.4234 115.4859 333° Northwest  Level Estimated
05:19AM 19.5389 115.4243 333° Northwest  Level Estimated
05:20AM 19.6544 115.3625 333° Northwest  Level Estimated
05:21AM 19.7699 115.3007 333° Northwest  Level Estimated
05:22AM 19.8853 115.2388 333° Northwest  Level Estimated
05:23AM 20.0007 115.1768 333° Northwest  Level Estimated
05:24AM 20.1161 115.1148 333° Northwest  Level Estimated
05:25AM 20.2315 115.0526 333° Northwest  Level Estimated
05:26AM 20.3469 114.9903 333° Northwest  Level Estimated
05:27AM 20.4622 114.9280 333° Northwest  Level Estimated
05:28AM 20.5775 114.8655 333° Northwest  Level Estimated
05:29AM 20.6928 114.8030 333° Northwest  Level Estimated
05:30AM 20.8081 114.7403 333° Northwest  Level Estimated
05:31AM 20.9233 114.6776 333° Northwest  Level Estimated
05:32AM 21.0386 114.6148 333° Northwest  Level Estimated
05:33AM 21.1538 114.5519 333° Northwest  Level Estimated
05:34AM 21.2690 114.4888 333° Northwest  Level Estimated
05:35AM 21.3841 114.4257 333° Northwest  Level Estimated
05:36AM 21.4993 114.3625 333° Northwest  Level Estimated
05:37AM 21.6144 114.2992 333° Northwest  Level Estimated
05:37AM 21.7590 114.3330 333° Northwest 363 418 11,500  Level FlightAware
05:37AM 21.7890 114.2870 305° West 361 415 10,900 -1,080 Descending FlightAware
05:38AM 21.8400 114.2050 304° West 357 411 10,000 -1,200 Descending FlightAware
05:38AM 21.8640 114.1660 304° West 355 409 9,400 -1,320 Descending FlightAware
05:39AM 21.8880 114.1280 304° West 356 410 8,800 -1,380 Descending FlightAware
05:39AM 21.9160 114.0830 304° West 352 405 8,100 -1,320 Descending FlightAware
05:40AM 21.9340 114.0540 304° West 343 395 7,700 -900 Descending FlightAware
05:41AM 21.9640 114.0050 303° West 307 353 6,900 -660 Descending FlightAware
05:41AM 21.9700 113.9960 306° West 306 352 6,800 -1,740 Descending FlightAware
05:42AM 22.0270 113.9050 304° West 293 337 5,400 -1,200 Descending FlightAware
05:43AM 22.0540 113.8610 304° West 291 335 5,100 -360 Descending FlightAware
05:44AM 22.1360 113.7620 312° West 215 247 4,600 -540 Descending FlightAware
05:44AM 22.1570 113.7510 334° Northwest 214 246 4,200 -960 Descending FlightAware
05:45AM 22.1810 113.7390 335° Northwest 212 244 3,800 -720 Descending FlightAware
05:45AM 22.2100 113.7240 334° Northwest 192 221 3,500 -660 Descending FlightAware
05:46AM 22.2290 113.7170 341° North 186 214 3,200 -600 Descending FlightAware
05:46AM 22.2440 113.7240 23° Northeast 164 189 3,100 -300 Descending FlightAware
05:47AM 22.2580 113.7370 41° Northeast 161 185 3,000 -360 Descending FlightAware
05:47AM 22.2670 113.7600 67° East 162 186 2,800 -540 Descending FlightAware
05:48AM 22.2740 113.7820 71° East 161 185 2,500 -840 Descending FlightAware
05:48AM 22.2800 113.8010 71° East 155 178 2,100 -840 Descending FlightAware
05:48AM 22.2860 113.8200 71° East 148 170 1,800 -600 Descending FlightAware
05:49AM 22.2890 113.8290 70° East 137 158 1,700 -600 Descending FlightAware
05:49AM 22.2940 113.8460 72° East 122 140 1,400 -720 Descending FlightAware
05:50AM 22.3000 113.8650 71° East 121 139 1,000 -660 Descending FlightAware
05:50AM 22.3080 113.8890 70° East 125 144 600 -600 Descending FlightAware
05:51AM 22.3140 113.9070 70° East 110 127 300 -600 Descending FlightAware
05:51AM 22.3160 113.9150 75° East 30 35 -720 Descending FlightAware
05:51AM 22.3170 113.9160 43° Northeast 23 26  Level FlightAware
05:52AM 22.3160 113.9190 110° East 30 35  Level FlightAware
05:52AM 22.3160 113.9210 90° East 26 30  Level FlightAware
05:53AM 22.3170 113.9220 43° Northeast 25 29  Level FlightAware
05:53AM 22.3170 113.9230 90° East 24 28  Level FlightAware
05:54AM 22.3170 113.9240 90° East 18 21  Level FlightAware
05:54AM 22.3160 113.9250 137° Southeast 22 25  Level FlightAware
05:55AM 22.3150 113.9270 118° Southeast 25 29  Level FlightAware
05:56AM 22.3150 113.9280 90° East 21 24  Level FlightAware
05:56AM 22.3150 113.9290 90° East 25 29  Level FlightAware
05:56AM 22.3160 113.9310 62° Northeast 25 29  Level FlightAware
05:57AM 22.3160 113.9320 90° East 18 21  Level FlightAware
05:58AM 22.3160 113.9330 90° East 13 15  Level FlightAware
06:00AM 22.3089 113.9146 334° Northwest  Level FlightAware Approximate